sensor_id;sensor_type;location;lat;lon;timestamp;pressure;altitude;pressure_sealevel;temperature;humidity
68994;BME280;56054;50.968;5.816;2022-08-11T00:01:14;101344.00;;;23.05;42.46
68994;BME280;56054;50.968;5.816;2022-08-11T00:04:24;101346.13;;;23.22;42.82
68994;BME280;56054;50.968;5.816;2022-08-11T00:07:31;101346.47;;;23.39;42.48
68994;BME280;56054;50.968;5.816;2022-08-11T00:10:38;101345.44;;;23.32;42.88
68994;BME280;56054;50.968;5.816;2022-08-11T00:13:53;101353.91;;;23.16;43.01
68994;BME280;56054;50.968;5.816;2022-08-11T00:17:04;101339.84;;;23.18;43.14
68994;BME280;56054;50.968;5.816;2022-08-11T00:24:25;101347.56;;;23.07;44.01
68994;BME280;56054;50.968;5.816;2022-08-11T00:27:39;101341.09;;;22.96;44.73
68994;BME280;56054;50.968;5.816;2022-08-11T00:30:46;101344.34;;;22.83;45.30
68994;BME280;56054;50.968;5.816;2022-08-11T00:33:54;101340.00;;;22.86;45.28
68994;BME280;56054;50.968;5.816;2022-08-11T00:37:09;101340.59;;;22.75;45.53
68994;BME280;56054;50.968;5.816;2022-08-11T00:40:34;101340.50;;;22.70;45.31
68994;BME280;56054;50.968;5.816;2022-08-11T00:43:58;101342.41;;;22.76;45.06
68994;BME280;56054;50.968;5.816;2022-08-11T00:47:22;101339.59;;;22.70;45.49
68994;BME280;56054;50.968;5.816;2022-08-11T00:55:06;101334.50;;;22.41;46.05
68994;BME280;56054;50.968;5.816;2022-08-11T01:02:17;101335.31;;;22.37;46.26
68994;BME280;56054;50.968;5.816;2022-08-11T01:13:01;101342.94;;;22.25;47.03
68994;BME280;56054;50.968;5.816;2022-08-11T01:24:16;101337.22;;;22.09;47.82
68994;BME280;56054;50.968;5.816;2022-08-11T01:38:25;101346.81;;;21.71;49.13
68994;BME280;56054;50.968;5.816;2022-08-11T01:45:33;101332.91;;;21.79;48.66
68994;BME280;56054;50.968;5.816;2022-08-11T01:59:13;101337.63;;;21.58;49.92
68994;BME280;56054;50.968;5.816;2022-08-11T02:05:51;101333.94;;;21.53;49.34
68994;BME280;56054;50.968;5.816;2022-08-11T02:13:00;101331.59;;;21.33;49.58
68994;BME280;56054;50.968;5.816;2022-08-11T02:16:28;101346.81;;;21.41;49.47
68994;BME280;56054;50.968;5.816;2022-08-11T02:53:12;101336.38;;;20.86;50.79
68994;BME280;56054;50.968;5.816;2022-08-11T03:00:12;101334.41;;;20.79;51.11
68994;BME280;56054;50.968;5.816;2022-08-11T03:06:54;101336.75;;;20.70;51.03
68994;BME280;56054;50.968;5.816;2022-08-11T03:13:37;101333.03;;;20.63;50.77
68994;BME280;56054;50.968;5.816;2022-08-11T03:16:52;101330.44;;;20.65;51.05
68994;BME280;56054;50.968;5.816;2022-08-11T03:25:05;101330.78;;;20.48;52.11
68994;BME280;56054;50.968;5.816;2022-08-11T03:31:29;101330.47;;;20.39;52.24
68994;BME280;56054;50.968;5.816;2022-08-11T03:34:38;101337.53;;;20.40;52.15
68994;BME280;56054;50.968;5.816;2022-08-11T03:37:59;101333.59;;;20.27;52.25
68994;BME280;56054;50.968;5.816;2022-08-11T03:41:34;101328.38;;;20.29;52.36
68994;BME280;56054;50.968;5.816;2022-08-11T04:07:04;101328.84;;;19.90;52.75
68994;BME280;56054;50.968;5.816;2022-08-11T04:58:24;101320.06;;;19.67;53.67
68994;BME280;56054;50.968;5.816;2022-08-11T05:13:02;101325.31;;;19.65;54.59
68994;BME280;56054;50.968;5.816;2022-08-11T05:16:13;101334.41;;;19.74;54.27
68994;BME280;56054;50.968;5.816;2022-08-11T05:19:45;101342.66;;;19.83;55.42
68994;BME280;56054;50.968;5.816;2022-08-11T05:23:04;101342.06;;;19.92;55.36
68994;BME280;56054;50.968;5.816;2022-08-11T05:26:21;101334.72;;;19.83;55.52
68994;BME280;56054;50.968;5.816;2022-08-11T05:33:02;101342.50;;;19.80;54.60
68994;BME280;56054;50.968;5.816;2022-08-11T05:36:20;101345.13;;;19.78;54.55
68994;BME280;56054;50.968;5.816;2022-08-11T05:39:37;101345.81;;;19.98;53.97
68994;BME280;56054;50.968;5.816;2022-08-11T05:42:49;101346.44;;;19.91;54.49
68994;BME280;56054;50.968;5.816;2022-08-11T05:46:06;101349.25;;;19.96;53.94
68994;BME280;56054;50.968;5.816;2022-08-11T05:49:14;101346.94;;;20.06;53.82
68994;BME280;56054;50.968;5.816;2022-08-11T05:56:39;101340.63;;;20.01;53.78
68994;BME280;56054;50.968;5.816;2022-08-11T05:59:48;101336.53;;;20.09;53.33
68994;BME280;56054;50.968;5.816;2022-08-11T06:02:58;101324.13;;;20.07;53.76
68994;BME280;56054;50.968;5.816;2022-08-11T06:06:07;101341.66;;;20.32;53.56
68994;BME280;56054;50.968;5.816;2022-08-11T06:09:48;101339.75;;;20.26;53.73
68994;BME280;56054;50.968;5.816;2022-08-11T06:13:23;101338.09;;;20.30;53.18
68994;BME280;56054;50.968;5.816;2022-08-11T06:16:31;101341.13;;;20.42;52.82
68994;BME280;56054;50.968;5.816;2022-08-11T06:23:48;101338.56;;;20.71;52.22
68994;BME280;56054;50.968;5.816;2022-08-11T06:26:57;101342.09;;;20.71;52.16
68994;BME280;56054;50.968;5.816;2022-08-11T06:30:07;101340.19;;;20.96;51.59
68994;BME280;56054;50.968;5.816;2022-08-11T06:33:44;101345.94;;;21.11;51.94
68994;BME280;56054;50.968;5.816;2022-08-11T06:37:18;101345.25;;;21.17;51.39
68994;BME280;56054;50.968;5.816;2022-08-11T06:47:27;101348.31;;;21.61;50.61
68994;BME280;56054;50.968;5.816;2022-08-11T06:55:04;101335.88;;;21.92;49.35
68994;BME280;56054;50.968;5.816;2022-08-11T06:58:39;101336.06;;;21.98;48.86
68994;BME280;56054;50.968;5.816;2022-08-11T07:02:33;101347.72;;;22.06;48.49
68994;BME280;56054;50.968;5.816;2022-08-11T07:06:03;101346.75;;;22.36;48.29
68994;BME280;56054;50.968;5.816;2022-08-11T07:09:42;101348.47;;;22.34;47.58
68994;BME280;56054;50.968;5.816;2022-08-11T07:13:27;101351.03;;;22.67;48.42
68994;BME280;56054;50.968;5.816;2022-08-11T07:16:44;101348.44;;;22.69;46.46
68994;BME280;56054;50.968;5.816;2022-08-11T07:24:16;101340.88;;;23.25;46.11
68994;BME280;56054;50.968;5.816;2022-08-11T07:27:50;101347.31;;;23.38;45.50
68994;BME280;56054;50.968;5.816;2022-08-11T07:39:50;101351.97;;;23.93;43.90
68994;BME280;56054;50.968;5.816;2022-08-11T07:43:34;101359.78;;;24.38;43.88
68994;BME280;56054;50.968;5.816;2022-08-11T07:47:13;101353.13;;;24.61;43.14
68994;BME280;56054;50.968;5.816;2022-08-11T07:54:35;101350.06;;;24.93;41.26
68994;BME280;56054;50.968;5.816;2022-08-11T07:57:58;101349.53;;;25.17;40.45
68994;BME280;56054;50.968;5.816;2022-08-11T08:01:21;101355.00;;;25.29;40.17
68994;BME280;56054;50.968;5.816;2022-08-11T08:05:05;101344.56;;;25.48;39.93
68994;BME280;56054;50.968;5.816;2022-08-11T08:08:20;101343.75;;;25.53;39.67
68994;BME280;56054;50.968;5.816;2022-08-11T08:11:37;101341.19;;;25.61;39.61
68994;BME280;56054;50.968;5.816;2022-08-11T08:14:49;101336.78;;;25.63;38.77
68994;BME280;56054;50.968;5.816;2022-08-11T08:18:14;101338.63;;;25.72;38.75
68994;BME280;56054;50.968;5.816;2022-08-11T08:55:03;101345.19;;;27.25;35.94
68994;BME280;56054;50.968;5.816;2022-08-11T08:58:25;101338.06;;;27.27;35.46
68994;BME280;56054;50.968;5.816;2022-08-11T09:01:54;101340.72;;;27.23;35.48
68994;BME280;56054;50.968;5.816;2022-08-11T09:05:03;101339.97;;;27.56;35.56
68994;BME280;56054;50.968;5.816;2022-08-11T09:08:12;101339.91;;;27.39;35.63
68994;BME280;56054;50.968;5.816;2022-08-11T09:11:22;101336.34;;;27.42;35.26
68994;BME280;56054;50.968;5.816;2022-08-11T09:14:36;101332.88;;;27.70;35.12
68994;BME280;56054;50.968;5.816;2022-08-11T09:17:52;101337.41;;;27.90;35.86
68994;BME280;56054;50.968;5.816;2022-08-11T09:25:09;101339.19;;;28.15;34.46
68994;BME280;56054;50.968;5.816;2022-08-11T09:28:19;101340.97;;;28.12;33.94
68994;BME280;56054;50.968;5.816;2022-08-11T09:31:32;101333.84;;;28.22;33.24
68994;BME280;56054;50.968;5.816;2022-08-11T09:34:40;101329.38;;;28.54;33.61
68994;BME280;56054;50.968;5.816;2022-08-11T09:37:48;101331.16;;;28.62;33.10
68994;BME280;56054;50.968;5.816;2022-08-11T09:44:51;101320.41;;;28.92;32.76
68994;BME280;56054;50.968;5.816;2022-08-11T10:10:09;101304.91;;;29.63;30.31
68994;BME280;56054;50.968;5.816;2022-08-11T10:17:23;101296.59;;;30.05;29.27
68994;BME280;56054;50.968;5.816;2022-08-11T10:24:46;101283.13;;;30.11;28.97
68994;BME280;56054;50.968;5.816;2022-08-11T10:27:54;101273.22;;;30.19;27.48
68994;BME280;56054;50.968;5.816;2022-08-11T10:31:03;101275.03;;;30.17;26.20
68994;BME280;56054;50.968;5.816;2022-08-11T10:34:10;101271.41;;;30.24;26.29
68994;BME280;56054;50.968;5.816;2022-08-11T10:37:19;101268.31;;;30.64;26.29
68994;BME280;56054;50.968;5.816;2022-08-11T10:40:27;101267.28;;;30.78;25.90
68994;BME280;56054;50.968;5.816;2022-08-11T10:43:36;101258.41;;;30.69;25.64
68994;BME280;56054;50.968;5.816;2022-08-11T10:46:44;101260.72;;;31.03;24.18
68994;BME280;56054;50.968;5.816;2022-08-11T10:54:31;101253.88;;;30.78;25.28
68994;BME280;56054;50.968;5.816;2022-08-11T10:58:00;101252.78;;;30.94;25.03
68994;BME280;56054;50.968;5.816;2022-08-11T11:01:09;101249.53;;;30.64;24.36
68994;BME280;56054;50.968;5.816;2022-08-11T11:04:21;101249.44;;;30.75;24.63
68994;BME280;56054;50.968;5.816;2022-08-11T11:11:14;101249.38;;;30.77;23.92
68994;BME280;56054;50.968;5.816;2022-08-11T11:14:29;101243.09;;;30.79;24.61
68994;BME280;56054;50.968;5.816;2022-08-11T11:18:08;101250.91;;;31.01;24.51
68994;BME280;56054;50.968;5.816;2022-08-11T11:25:35;101250.19;;;30.86;24.43
68994;BME280;56054;50.968;5.816;2022-08-11T11:32:45;101236.41;;;31.14;24.60
68994;BME280;56054;50.968;5.816;2022-08-11T11:36:19;101249.19;;;30.95;23.86
68994;BME280;56054;50.968;5.816;2022-08-11T11:39:31;101237.78;;;30.76;24.21
68994;BME280;56054;50.968;5.816;2022-08-11T11:42:41;101244.44;;;31.14;24.46
68994;BME280;56054;50.968;5.816;2022-08-11T11:45:49;101249.63;;;31.29;24.21
68994;BME280;56054;50.968;5.816;2022-08-11T11:49:24;101242.22;;;30.77;23.93
68994;BME280;56054;50.968;5.816;2022-08-11T11:57:11;101221.63;;;30.79;24.24
68994;BME280;56054;50.968;5.816;2022-08-11T12:00:22;101226.88;;;30.91;24.28
68994;BME280;56054;50.968;5.816;2022-08-11T12:03:32;101223.72;;;31.24;24.11
68994;BME280;56054;50.968;5.816;2022-08-11T12:06:43;101214.84;;;31.22;23.32
68994;BME280;56054;50.968;5.816;2022-08-11T12:09:51;101213.44;;;31.55;23.28
68994;BME280;56054;50.968;5.816;2022-08-11T12:13:00;101219.09;;;31.91;23.23
68994;BME280;56054;50.968;5.816;2022-08-11T12:16:10;101215.91;;;31.08;23.69
68994;BME280;56054;50.968;5.816;2022-08-11T12:19:18;101207.09;;;31.00;23.19
68994;BME280;56054;50.968;5.816;2022-08-11T12:26:42;101208.31;;;31.41;23.90
68994;BME280;56054;50.968;5.816;2022-08-11T12:29:59;101199.88;;;31.63;23.35
68994;BME280;56054;50.968;5.816;2022-08-11T12:33:13;101191.19;;;32.01;23.57
68994;BME280;56054;50.968;5.816;2022-08-11T12:36:22;101180.25;;;32.12;22.87
68994;BME280;56054;50.968;5.816;2022-08-11T12:39:40;101181.97;;;31.63;23.02
68994;BME280;56054;50.968;5.816;2022-08-11T12:42:51;101177.50;;;31.62;23.25
68994;BME280;56054;50.968;5.816;2022-08-11T12:46:03;101179.00;;;31.80;23.62
68994;BME280;56054;50.968;5.816;2022-08-11T12:49:17;101175.25;;;31.89;23.29
68994;BME280;56054;50.968;5.816;2022-08-11T13:26:45;101137.19;;;32.13;22.38
68994;BME280;56054;50.968;5.816;2022-08-11T13:29:56;101132.31;;;32.34;22.24
68994;BME280;56054;50.968;5.816;2022-08-11T13:33:04;101142.97;;;31.90;21.67
68994;BME280;56054;50.968;5.816;2022-08-11T13:36:13;101144.88;;;32.32;21.76
68994;BME280;56054;50.968;5.816;2022-08-11T13:39:27;101128.16;;;32.16;22.01
68994;BME280;56054;50.968;5.816;2022-08-11T13:42:37;101139.47;;;32.33;21.97
68994;BME280;56054;50.968;5.816;2022-08-11T13:45:46;101131.47;;;32.30;21.57
68994;BME280;56054;50.968;5.816;2022-08-11T13:48:55;101134.50;;;32.58;22.18
68994;BME280;56054;50.968;5.816;2022-08-11T13:56:21;101133.28;;;32.30;22.17
68994;BME280;56054;50.968;5.816;2022-08-11T13:59:29;101113.66;;;32.68;21.74
68994;BME280;56054;50.968;5.816;2022-08-11T14:02:40;101104.53;;;33.14;21.84
68994;BME280;56054;50.968;5.816;2022-08-11T14:05:50;101110.59;;;33.22;21.87
68994;BME280;56054;50.968;5.816;2022-08-11T14:08:58;101112.13;;;32.55;21.83
68994;BME280;56054;50.968;5.816;2022-08-11T14:12:12;101102.94;;;32.65;21.64
68994;BME280;56054;50.968;5.816;2022-08-11T14:15:31;101109.34;;;32.59;21.87
68994;BME280;56054;50.968;5.816;2022-08-11T14:18:43;101105.16;;;32.45;22.07
68994;BME280;56054;50.968;5.816;2022-08-11T14:26:04;101106.56;;;32.64;22.25
68994;BME280;56054;50.968;5.816;2022-08-11T14:29:24;101098.03;;;32.84;22.16
68994;BME280;56054;50.968;5.816;2022-08-11T14:32:32;101095.59;;;32.73;22.50
68994;BME280;56054;50.968;5.816;2022-08-11T14:35:39;101090.03;;;32.81;22.16
68994;BME280;56054;50.968;5.816;2022-08-11T14:38:52;101090.00;;;33.21;22.16
68994;BME280;56054;50.968;5.816;2022-08-11T14:42:06;101084.19;;;33.37;21.71
68994;BME280;56054;50.968;5.816;2022-08-11T14:45:19;101085.06;;;32.62;22.48
68994;BME280;56054;50.968;5.816;2022-08-11T14:48:33;101083.25;;;33.02;22.08
68994;BME280;56054;50.968;5.816;2022-08-11T14:55:53;101078.56;;;33.12;22.43
68994;BME280;56054;50.968;5.816;2022-08-11T14:59:03;101072.44;;;33.05;22.44
68994;BME280;56054;50.968;5.816;2022-08-11T15:02:20;101072.47;;;32.65;22.39
68994;BME280;56054;50.968;5.816;2022-08-11T15:05:33;101067.44;;;33.60;22.20
68994;BME280;56054;50.968;5.816;2022-08-11T15:08:44;101058.91;;;33.08;22.23
68994;BME280;56054;50.968;5.816;2022-08-11T15:12:21;101055.22;;;33.12;21.78
68994;BME280;56054;50.968;5.816;2022-08-11T15:16:26;101044.94;;;32.91;22.07
68994;BME280;56054;50.968;5.816;2022-08-11T15:55:54;101024.66;;;33.13;21.89
68994;BME280;56054;50.968;5.816;2022-08-11T15:59:04;101013.63;;;33.24;21.65
68994;BME280;56054;50.968;5.816;2022-08-11T16:02:14;101021.28;;;33.05;21.66
68994;BME280;56054;50.968;5.816;2022-08-11T16:05:24;101009.19;;;32.86;22.04
68994;BME280;56054;50.968;5.816;2022-08-11T16:08:33;101004.13;;;33.09;22.40
68994;BME280;56054;50.968;5.816;2022-08-11T16:11:43;101004.25;;;33.39;22.01
68994;BME280;56054;50.968;5.816;2022-08-11T16:14:55;100999.56;;;33.45;22.58
68994;BME280;56054;50.968;5.816;2022-08-11T16:18:07;101005.66;;;33.19;22.66
68994;BME280;56054;50.968;5.816;2022-08-11T16:25:46;101001.59;;;33.03;23.26
68994;BME280;56054;50.968;5.816;2022-08-11T16:28:57;100993.72;;;32.94;23.69
68994;BME280;56054;50.968;5.816;2022-08-11T16:32:10;100996.59;;;32.88;23.71
68994;BME280;56054;50.968;5.816;2022-08-11T16:35:34;100995.56;;;32.56;23.70
68994;BME280;56054;50.968;5.816;2022-08-11T16:38:42;100994.97;;;32.80;23.60
68994;BME280;56054;50.968;5.816;2022-08-11T16:41:51;100994.88;;;32.83;24.04
68994;BME280;56054;50.968;5.816;2022-08-11T16:44:59;100986.28;;;33.05;23.47
68994;BME280;56054;50.968;5.816;2022-08-11T16:48:07;100989.91;;;33.02;23.82
68994;BME280;56054;50.968;5.816;2022-08-11T16:55:57;100992.81;;;32.57;24.43
68994;BME280;56054;50.968;5.816;2022-08-11T16:59:30;100985.88;;;32.84;24.55
68994;BME280;56054;50.968;5.816;2022-08-11T17:02:51;100987.41;;;32.59;24.91
68994;BME280;56054;50.968;5.816;2022-08-11T17:05:58;100989.72;;;32.35;24.79
68994;BME280;56054;50.968;5.816;2022-08-11T17:09:34;100990.38;;;32.47;25.08
68994;BME280;56054;50.968;5.816;2022-08-11T17:12:43;100988.16;;;32.27;25.43
68994;BME280;56054;50.968;5.816;2022-08-11T17:16:02;100975.28;;;32.01;25.57
68994;BME280;56054;50.968;5.816;2022-08-11T17:27:37;100975.63;;;31.82;26.00
68994;BME280;56054;50.968;5.816;2022-08-11T17:43:17;100973.31;;;31.17;25.79
68994;BME280;56054;50.968;5.816;2022-08-11T17:46:24;100975.34;;;31.52;25.76
68994;BME280;56054;50.968;5.816;2022-08-11T17:49:34;100965.72;;;31.41;26.58
68994;BME280;56054;50.968;5.816;2022-08-11T17:52:42;100978.81;;;31.09;26.07
68994;BME280;56054;50.968;5.816;2022-08-11T17:55:56;100975.94;;;31.19;26.19
68994;BME280;56054;50.968;5.816;2022-08-11T17:59:08;100975.38;;;31.01;26.18
68994;BME280;56054;50.968;5.816;2022-08-11T18:11:16;100983.78;;;30.78;26.94
68994;BME280;56054;50.968;5.816;2022-08-11T18:14:27;100976.88;;;30.63;27.12
68994;BME280;56054;50.968;5.816;2022-08-11T18:17:35;100986.94;;;30.49;27.46
68994;BME280;56054;50.968;5.816;2022-08-11T18:20:47;100985.06;;;30.54;27.48
68994;BME280;56054;50.968;5.816;2022-08-11T18:23:56;100981.03;;;30.24;27.32
68994;BME280;56054;50.968;5.816;2022-08-11T18:27:03;100984.50;;;30.32;27.30
68994;BME280;56054;50.968;5.816;2022-08-11T18:30:12;100985.47;;;30.23;27.83
68994;BME280;56054;50.968;5.816;2022-08-11T18:41:40;100994.03;;;29.83;28.13
68994;BME280;56054;50.968;5.816;2022-08-11T18:44:52;100989.66;;;29.78;27.99
68994;BME280;56054;50.968;5.816;2022-08-11T18:48:08;100993.19;;;29.80;28.26
68994;BME280;56054;50.968;5.816;2022-08-11T18:51:17;100992.44;;;29.67;28.53
68994;BME280;56054;50.968;5.816;2022-08-11T18:54:26;101006.78;;;29.60;29.17
68994;BME280;56054;50.968;5.816;2022-08-11T18:57:35;101004.31;;;29.40;29.03
68994;BME280;56054;50.968;5.816;2022-08-11T19:13:18;101016.09;;;29.19;29.86
68994;BME280;56054;50.968;5.816;2022-08-11T19:16:28;101017.06;;;29.15;29.71
68994;BME280;56054;50.968;5.816;2022-08-11T19:19:57;101020.63;;;29.14;30.08
68994;BME280;56054;50.968;5.816;2022-08-11T19:23:17;101018.91;;;29.03;30.77
68994;BME280;56054;50.968;5.816;2022-08-11T19:26:28;101023.41;;;28.97;31.13
68994;BME280;56054;50.968;5.816;2022-08-11T19:29:39;101033.28;;;28.87;31.85
68994;BME280;56054;50.968;5.816;2022-08-11T19:41:38;101041.56;;;28.50;32.32
68994;BME280;56054;50.968;5.816;2022-08-11T19:44:46;101051.41;;;28.48;33.37
68994;BME280;56054;50.968;5.816;2022-08-11T19:47:54;101036.31;;;28.26;32.94
68994;BME280;56054;50.968;5.816;2022-08-11T19:51:09;101042.63;;;28.06;33.30
68994;BME280;56054;50.968;5.816;2022-08-11T19:54:17;101038.22;;;28.07;33.65
68994;BME280;56054;50.968;5.816;2022-08-11T19:57:28;101054.19;;;28.13;33.20
68994;BME280;56054;50.968;5.816;2022-08-11T20:13:08;101047.19;;;27.63;33.91
68994;BME280;56054;50.968;5.816;2022-08-11T20:16:18;101047.25;;;27.46;34.29
68994;BME280;56054;50.968;5.816;2022-08-11T20:19:27;101050.78;;;27.43;34.69
68994;BME280;56054;50.968;5.816;2022-08-11T20:22:36;101051.69;;;27.47;34.63
68994;BME280;56054;50.968;5.816;2022-08-11T20:25:47;101049.91;;;27.46;34.97
68994;BME280;56054;50.968;5.816;2022-08-11T20:28:56;101056.16;;;27.26;35.11
68994;BME280;56054;50.968;5.816;2022-08-11T20:44:36;101051.63;;;26.79;35.81
68994;BME280;56054;50.968;5.816;2022-08-11T20:47:45;101050.72;;;26.73;35.88
68994;BME280;56054;50.968;5.816;2022-08-11T20:50:56;101048.97;;;26.76;35.89
68994;BME280;56054;50.968;5.816;2022-08-11T20:54:05;101054.31;;;26.81;36.01
68994;BME280;56054;50.968;5.816;2022-08-11T20:57:14;101060.50;;;26.67;35.77
68994;BME280;56054;50.968;5.816;2022-08-11T21:00:30;101060.50;;;26.58;36.53
68994;BME280;56054;50.968;5.816;2022-08-11T22:12:17;101055.25;;;25.24;38.35
68994;BME280;56054;50.968;5.816;2022-08-11T22:15:24;101054.34;;;25.18;39.34
68994;BME280;56054;50.968;5.816;2022-08-11T22:18:34;101056.03;;;25.13;39.58
68994;BME280;56054;50.968;5.816;2022-08-11T22:21:42;101055.25;;;25.20;39.25
68994;BME280;56054;50.968;5.816;2022-08-11T22:24:50;101056.88;;;25.08;39.59
68994;BME280;56054;50.968;5.816;2022-08-11T22:27:58;101057.75;;;25.05;39.88
68994;BME280;56054;50.968;5.816;2022-08-11T22:43:37;101059.16;;;24.69;40.90
68994;BME280;56054;50.968;5.816;2022-08-11T22:46:45;101047.53;;;24.56;41.57
68994;BME280;56054;50.968;5.816;2022-08-11T22:49:56;101051.94;;;24.54;41.59
68994;BME280;56054;50.968;5.816;2022-08-11T22:53:06;101062.50;;;24.50;41.50
68994;BME280;56054;50.968;5.816;2022-08-11T22:56:15;101050.88;;;24.42;41.36
68994;BME280;56054;50.968;5.816;2022-08-11T22:59:23;101054.44;;;24.44;42.08
68994;BME280;56054;50.968;5.816;2022-08-11T23:15:02;101067.44;;;24.19;41.74
68994;BME280;56054;50.968;5.816;2022-08-11T23:18:09;101069.88;;;24.02;42.43
68994;BME280;56054;50.968;5.816;2022-08-11T23:21:18;101061.84;;;23.99;42.52
68994;BME280;56054;50.968;5.816;2022-08-11T23:24:25;101061.03;;;24.05;42.98
68994;BME280;56054;50.968;5.816;2022-08-11T23:27:42;101058.41;;;24.05;42.56
68994;BME280;56054;50.968;5.816;2022-08-11T23:43:22;101064.03;;;23.68;43.30
68994;BME280;56054;50.968;5.816;2022-08-11T23:46:29;101052.47;;;23.65;43.72
68994;BME280;56054;50.968;5.816;2022-08-11T23:49:38;101055.06;;;23.59;43.15
68994;BME280;56054;50.968;5.816;2022-08-11T23:52:45;101048.78;;;23.55;43.65
68994;BME280;56054;50.968;5.816;2022-08-11T23:55:53;101046.03;;;23.46;43.58
68994;BME280;56054;50.968;5.816;2022-08-11T23:59:01;101048.59;;;23.41;43.71
